sensor_id;sensor_type;location;lat;lon;timestamp;temperature;humidity
52965;DHT22;42923;53.220;6.528;2024-03-08T00:02:14;2.90;99.90
52965;DHT22;42923;53.220;6.528;2024-03-08T00:04:40;3.40;99.90
52965;DHT22;42923;53.220;6.528;2024-03-08T00:07:06;2.90;99.90
52965;DHT22;42923;53.220;6.528;2024-03-08T00:09:33;2.90;99.90
52965;DHT22;42923;53.220;6.528;2024-03-08T00:11:58;3.60;99.90
52965;DHT22;42923;53.220;6.528;2024-03-08T00:14:24;3.50;99.90
52965;DHT22;42923;53.220;6.528;2024-03-08T00:16:50;3.00;99.90
52965;DHT22;42923;53.220;6.528;2024-03-08T00:19:18;2.90;99.90
52965;DHT22;42923;53.220;6.528;2024-03-08T00:21:44;2.90;99.90
52965;DHT22;42923;53.220;6.528;2024-03-08T00:24:10;2.80;99.90
52965;DHT22;42923;53.220;6.528;2024-03-08T00:26:36;2.80;99.90
52965;DHT22;42923;53.220;6.528;2024-03-08T00:29:02;2.80;99.90
52965;DHT22;42923;53.220;6.528;2024-03-08T00:31:29;2.80;99.90
52965;DHT22;42923;53.220;6.528;2024-03-08T00:33:56;2.80;99.90
52965;DHT22;42923;53.220;6.528;2024-03-08T00:36:23;2.80;99.90
52965;DHT22;42923;53.220;6.528;2024-03-08T00:38:48;2.80;99.90
52965;DHT22;42923;53.220;6.528;2024-03-08T00:41:14;2.80;99.90
52965;DHT22;42923;53.220;6.528;2024-03-08T00:43:40;2.80;99.90
52965;DHT22;42923;53.220;6.528;2024-03-08T00:46:06;2.90;99.90
52965;DHT22;42923;53.220;6.528;2024-03-08T00:48:31;2.80;99.90
52965;DHT22;42923;53.220;6.528;2024-03-08T00:50:57;2.70;99.90
52965;DHT22;42923;53.220;6.528;2024-03-08T00:53:23;2.70;99.90
52965;DHT22;42923;53.220;6.528;2024-03-08T00:55:48;2.70;99.90
52965;DHT22;42923;53.220;6.528;2024-03-08T00:58:14;2.70;99.90
52965;DHT22;42923;53.220;6.528;2024-03-08T01:00:40;2.70;99.90
52965;DHT22;42923;53.220;6.528;2024-03-08T01:03:06;4.00;99.90
52965;DHT22;42923;53.220;6.528;2024-03-08T01:05:32;2.60;99.90
52965;DHT22;42923;53.220;6.528;2024-03-08T01:07:59;3.30;99.90
52965;DHT22;42923;53.220;6.528;2024-03-08T01:10:24;2.60;99.90
52965;DHT22;42923;53.220;6.528;2024-03-08T01:12:50;2.50;99.90
52965;DHT22;42923;53.220;6.528;2024-03-08T01:15:16;2.50;99.90
52965;DHT22;42923;53.220;6.528;2024-03-08T01:17:41;2.60;99.90
52965;DHT22;42923;53.220;6.528;2024-03-08T01:20:09;2.50;99.90
52965;DHT22;42923;53.220;6.528;2024-03-08T01:22:38;2.40;99.90
52965;DHT22;42923;53.220;6.528;2024-03-08T01:25:04;2.40;99.90
52965;DHT22;42923;53.220;6.528;2024-03-08T01:27:30;2.40;99.90
52965;DHT22;42923;53.220;6.528;2024-03-08T01:29:56;2.50;99.90
52965;DHT22;42923;53.220;6.528;2024-03-08T01:32:25;2.40;99.90
52965;DHT22;42923;53.220;6.528;2024-03-08T01:34:50;2.40;99.90
52965;DHT22;42923;53.220;6.528;2024-03-08T01:37:16;2.30;99.90
52965;DHT22;42923;53.220;6.528;2024-03-08T01:39:42;2.20;99.90
52965;DHT22;42923;53.220;6.528;2024-03-08T01:42:08;2.20;99.90
52965;DHT22;42923;53.220;6.528;2024-03-08T01:44:34;2.20;99.90
52965;DHT22;42923;53.220;6.528;2024-03-08T01:47:00;2.20;99.90
52965;DHT22;42923;53.220;6.528;2024-03-08T01:49:26;2.20;99.90
52965;DHT22;42923;53.220;6.528;2024-03-08T01:51:54;2.40;99.90
52965;DHT22;42923;53.220;6.528;2024-03-08T01:54:22;2.30;99.90
52965;DHT22;42923;53.220;6.528;2024-03-08T01:56:49;1.90;99.90
52965;DHT22;42923;53.220;6.528;2024-03-08T01:59:15;2.20;99.90
52965;DHT22;42923;53.220;6.528;2024-03-08T02:01:42;2.10;99.90
52965;DHT22;42923;53.220;6.528;2024-03-08T02:04:08;2.00;99.90
52965;DHT22;42923;53.220;6.528;2024-03-08T02:06:33;2.20;99.90
52965;DHT22;42923;53.220;6.528;2024-03-08T02:09:00;2.00;99.90
52965;DHT22;42923;53.220;6.528;2024-03-08T02:11:26;2.00;99.90
52965;DHT22;42923;53.220;6.528;2024-03-08T02:13:52;2.10;99.90
52965;DHT22;42923;53.220;6.528;2024-03-08T02:16:21;2.00;99.90
52965;DHT22;42923;53.220;6.528;2024-03-08T02:18:48;2.00;99.90
52965;DHT22;42923;53.220;6.528;2024-03-08T02:21:16;2.00;99.90
52965;DHT22;42923;53.220;6.528;2024-03-08T02:23:43;2.00;99.90
52965;DHT22;42923;53.220;6.528;2024-03-08T02:26:09;2.40;99.90
52965;DHT22;42923;53.220;6.528;2024-03-08T02:28:36;2.00;99.90
52965;DHT22;42923;53.220;6.528;2024-03-08T02:31:01;2.00;99.90
52965;DHT22;42923;53.220;6.528;2024-03-08T02:33:28;2.30;99.90
52965;DHT22;42923;53.220;6.528;2024-03-08T02:35:54;1.90;99.90
52965;DHT22;42923;53.220;6.528;2024-03-08T02:38:22;1.90;99.90
52965;DHT22;42923;53.220;6.528;2024-03-08T02:40:51;1.90;99.90
52965;DHT22;42923;53.220;6.528;2024-03-08T02:43:18;1.80;99.90
52965;DHT22;42923;53.220;6.528;2024-03-08T02:45:44;1.80;99.90
52965;DHT22;42923;53.220;6.528;2024-03-08T02:48:14;1.80;99.90
52965;DHT22;42923;53.220;6.528;2024-03-08T02:50:40;3.30;99.90
52965;DHT22;42923;53.220;6.528;2024-03-08T02:53:08;1.70;99.90
52965;DHT22;42923;53.220;6.528;2024-03-08T02:55:33;1.70;99.90
52965;DHT22;42923;53.220;6.528;2024-03-08T02:58:02;1.80;99.90
52965;DHT22;42923;53.220;6.528;2024-03-08T03:00:29;1.60;99.90
52965;DHT22;42923;53.220;6.528;2024-03-08T03:02:59;1.70;99.90
52965;DHT22;42923;53.220;6.528;2024-03-08T03:05:24;1.60;99.90
52965;DHT22;42923;53.220;6.528;2024-03-08T03:07:51;1.70;99.90
52965;DHT22;42923;53.220;6.528;2024-03-08T03:10:17;1.60;99.90
52965;DHT22;42923;53.220;6.528;2024-03-08T03:12:44;1.70;99.90
52965;DHT22;42923;53.220;6.528;2024-03-08T03:15:13;3.00;99.90
52965;DHT22;42923;53.220;6.528;2024-03-08T03:17:39;1.60;99.90
52965;DHT22;42923;53.220;6.528;2024-03-08T03:20:09;1.60;99.90
52965;DHT22;42923;53.220;6.528;2024-03-08T03:22:38;1.70;99.90
52965;DHT22;42923;53.220;6.528;2024-03-08T03:25:04;1.60;99.90
52965;DHT22;42923;53.220;6.528;2024-03-08T03:27:32;1.60;99.90
52965;DHT22;42923;53.220;6.528;2024-03-08T03:29:58;1.60;99.90
52965;DHT22;42923;53.220;6.528;2024-03-08T03:32:32;1.60;99.90
52965;DHT22;42923;53.220;6.528;2024-03-08T03:34:58;1.50;99.90
52965;DHT22;42923;53.220;6.528;2024-03-08T03:37:24;1.40;99.90
52965;DHT22;42923;53.220;6.528;2024-03-08T03:39:49;1.40;99.90
52965;DHT22;42923;53.220;6.528;2024-03-08T03:42:19;1.40;99.90
52965;DHT22;42923;53.220;6.528;2024-03-08T03:44:48;1.50;99.90
52965;DHT22;42923;53.220;6.528;2024-03-08T03:47:15;0.90;99.90
52965;DHT22;42923;53.220;6.528;2024-03-08T03:49:41;1.50;99.90
52965;DHT22;42923;53.220;6.528;2024-03-08T03:52:08;1.40;99.90
52965;DHT22;42923;53.220;6.528;2024-03-08T03:54:34;1.40;99.90
52965;DHT22;42923;53.220;6.528;2024-03-08T03:57:00;1.20;99.90
52965;DHT22;42923;53.220;6.528;2024-03-08T03:59:26;1.30;99.90
52965;DHT22;42923;53.220;6.528;2024-03-08T04:01:55;1.30;99.90
52965;DHT22;42923;53.220;6.528;2024-03-08T04:04:21;1.20;99.90
52965;DHT22;42923;53.220;6.528;2024-03-08T04:06:47;1.20;99.90
52965;DHT22;42923;53.220;6.528;2024-03-08T04:09:13;1.20;99.90
52965;DHT22;42923;53.220;6.528;2024-03-08T04:11:39;1.20;99.90
52965;DHT22;42923;53.220;6.528;2024-03-08T04:14:05;1.10;99.90
52965;DHT22;42923;53.220;6.528;2024-03-08T04:16:31;1.20;99.90
52965;DHT22;42923;53.220;6.528;2024-03-08T04:18:58;1.30;99.90
52965;DHT22;42923;53.220;6.528;2024-03-08T04:21:23;1.20;99.90
52965;DHT22;42923;53.220;6.528;2024-03-08T04:23:49;1.20;99.90
52965;DHT22;42923;53.220;6.528;2024-03-08T04:26:15;1.20;99.90
52965;DHT22;42923;53.220;6.528;2024-03-08T04:28:41;1.10;99.90
52965;DHT22;42923;53.220;6.528;2024-03-08T04:31:07;1.10;99.90
52965;DHT22;42923;53.220;6.528;2024-03-08T04:33:33;1.20;99.90
52965;DHT22;42923;53.220;6.528;2024-03-08T04:36:01;1.20;99.90
52965;DHT22;42923;53.220;6.528;2024-03-08T04:38:30;1.10;99.90
52965;DHT22;42923;53.220;6.528;2024-03-08T04:40:57;1.20;99.90
52965;DHT22;42923;53.220;6.528;2024-03-08T04:43:23;1.10;99.90
52965;DHT22;42923;53.220;6.528;2024-03-08T04:45:52;1.10;99.90
52965;DHT22;42923;53.220;6.528;2024-03-08T04:48:19;1.10;99.90
52965;DHT22;42923;53.220;6.528;2024-03-08T04:50:46;1.20;99.90
52965;DHT22;42923;53.220;6.528;2024-03-08T04:53:11;0.90;99.90
52965;DHT22;42923;53.220;6.528;2024-03-08T04:55:37;1.10;99.90
52965;DHT22;42923;53.220;6.528;2024-03-08T04:58:03;1.00;99.90
52965;DHT22;42923;53.220;6.528;2024-03-08T05:00:32;1.00;99.90
52965;DHT22;42923;53.220;6.528;2024-03-08T05:02:58;0.90;99.90
52965;DHT22;42923;53.220;6.528;2024-03-08T05:05:24;1.00;99.90
52965;DHT22;42923;53.220;6.528;2024-03-08T05:07:50;1.00;99.90
52965;DHT22;42923;53.220;6.528;2024-03-08T05:10:16;0.90;99.90
52965;DHT22;42923;53.220;6.528;2024-03-08T05:12:43;1.00;99.90
52965;DHT22;42923;53.220;6.528;2024-03-08T05:15:09;1.00;99.90
52965;DHT22;42923;53.220;6.528;2024-03-08T05:17:35;0.90;99.90
52965;DHT22;42923;53.220;6.528;2024-03-08T05:20:01;0.90;99.90
52965;DHT22;42923;53.220;6.528;2024-03-08T05:22:27;0.70;99.90
52965;DHT22;42923;53.220;6.528;2024-03-08T05:24:53;0.90;99.90
52965;DHT22;42923;53.220;6.528;2024-03-08T05:27:19;0.80;99.90
52965;DHT22;42923;53.220;6.528;2024-03-08T05:29:45;0.70;99.90
52965;DHT22;42923;53.220;6.528;2024-03-08T05:32:11;0.80;99.90
52965;DHT22;42923;53.220;6.528;2024-03-08T05:34:37;0.70;99.90
52965;DHT22;42923;53.220;6.528;2024-03-08T05:37:04;0.80;99.90
52965;DHT22;42923;53.220;6.528;2024-03-08T05:39:30;0.80;99.90
52965;DHT22;42923;53.220;6.528;2024-03-08T05:41:55;0.80;99.90
52965;DHT22;42923;53.220;6.528;2024-03-08T05:44:22;0.80;99.90
52965;DHT22;42923;53.220;6.528;2024-03-08T05:46:48;0.70;99.90
52965;DHT22;42923;53.220;6.528;2024-03-08T05:49:13;0.70;99.90
52965;DHT22;42923;53.220;6.528;2024-03-08T05:51:40;0.70;99.90
52965;DHT22;42923;53.220;6.528;2024-03-08T05:54:07;0.70;99.90
52965;DHT22;42923;53.220;6.528;2024-03-08T05:56:36;0.70;99.90
52965;DHT22;42923;53.220;6.528;2024-03-08T05:59:02;2.60;99.90
52965;DHT22;42923;53.220;6.528;2024-03-08T06:01:28;0.80;99.90
52965;DHT22;42923;53.220;6.528;2024-03-08T06:03:55;0.80;99.90
52965;DHT22;42923;53.220;6.528;2024-03-08T06:06:22;0.70;99.90
52965;DHT22;42923;53.220;6.528;2024-03-08T06:08:49;0.70;99.90
52965;DHT22;42923;53.220;6.528;2024-03-08T06:11:15;0.60;99.90
52965;DHT22;42923;53.220;6.528;2024-03-08T06:13:44;0.70;99.90
52965;DHT22;42923;53.220;6.528;2024-03-08T06:16:10;0.50;99.90
52965;DHT22;42923;53.220;6.528;2024-03-08T06:18:36;1.80;99.90
52965;DHT22;42923;53.220;6.528;2024-03-08T06:21:08;0.70;99.90
52965;DHT22;42923;53.220;6.528;2024-03-08T06:23:35;0.70;99.90
52965;DHT22;42923;53.220;6.528;2024-03-08T06:26:07;0.70;99.90
52965;DHT22;42923;53.220;6.528;2024-03-08T06:28:33;0.70;99.90
52965;DHT22;42923;53.220;6.528;2024-03-08T06:31:00;0.80;99.90
52965;DHT22;42923;53.220;6.528;2024-03-08T06:33:26;0.90;99.90
52965;DHT22;42923;53.220;6.528;2024-03-08T06:35:55;0.80;99.90
52965;DHT22;42923;53.220;6.528;2024-03-08T06:38:24;0.90;99.90
52965;DHT22;42923;53.220;6.528;2024-03-08T06:40:50;1.00;99.90
52965;DHT22;42923;53.220;6.528;2024-03-08T06:43:17;0.90;99.90
52965;DHT22;42923;53.220;6.528;2024-03-08T06:45:44;1.00;99.90
52965;DHT22;42923;53.220;6.528;2024-03-08T06:48:16;0.90;99.90
52965;DHT22;42923;53.220;6.528;2024-03-08T06:50:46;0.90;99.90
52965;DHT22;42923;53.220;6.528;2024-03-08T06:53:15;1.00;99.90
52965;DHT22;42923;53.220;6.528;2024-03-08T06:55:44;1.10;99.90
52965;DHT22;42923;53.220;6.528;2024-03-08T06:58:10;1.10;99.90
52965;DHT22;42923;53.220;6.528;2024-03-08T07:00:37;1.20;99.90
52965;DHT22;42923;53.220;6.528;2024-03-08T07:03:03;1.30;99.90
52965;DHT22;42923;53.220;6.528;2024-03-08T07:05:32;1.40;99.90
52965;DHT22;42923;53.220;6.528;2024-03-08T07:07:58;1.50;99.90
52965;DHT22;42923;53.220;6.528;2024-03-08T07:10:24;3.70;99.90
52965;DHT22;42923;53.220;6.528;2024-03-08T07:12:51;1.70;99.90
52965;DHT22;42923;53.220;6.528;2024-03-08T07:15:19;1.80;99.90
52965;DHT22;42923;53.220;6.528;2024-03-08T07:17:49;1.90;99.90
52965;DHT22;42923;53.220;6.528;2024-03-08T07:20:15;2.00;99.90
52965;DHT22;42923;53.220;6.528;2024-03-08T07:22:44;2.10;99.90
52965;DHT22;42923;53.220;6.528;2024-03-08T07:25:13;4.10;99.90
52965;DHT22;42923;53.220;6.528;2024-03-08T07:30:15;2.50;99.90
52965;DHT22;42923;53.220;6.528;2024-03-08T07:33:00;2.50;99.90
52965;DHT22;42923;53.220;6.528;2024-03-08T07:35:28;2.60;99.90
52965;DHT22;42923;53.220;6.528;2024-03-08T07:37:54;2.60;99.90
52965;DHT22;42923;53.220;6.528;2024-03-08T07:40:22;2.60;99.90
52965;DHT22;42923;53.220;6.528;2024-03-08T07:42:49;2.60;99.90
52965;DHT22;42923;53.220;6.528;2024-03-08T07:45:15;2.70;99.90
52965;DHT22;42923;53.220;6.528;2024-03-08T07:47:42;2.80;99.90
52965;DHT22;42923;53.220;6.528;2024-03-08T07:50:08;2.90;99.90
52965;DHT22;42923;53.220;6.528;2024-03-08T07:52:37;2.90;99.90
52965;DHT22;42923;53.220;6.528;2024-03-08T07:55:03;3.20;99.90
52965;DHT22;42923;53.220;6.528;2024-03-08T07:57:32;3.30;99.90
52965;DHT22;42923;53.220;6.528;2024-03-08T07:59:58;3.10;99.90
52965;DHT22;42923;53.220;6.528;2024-03-08T08:02:24;3.70;99.90
52965;DHT22;42923;53.220;6.528;2024-03-08T08:04:50;3.80;99.90
52965;DHT22;42923;53.220;6.528;2024-03-08T08:07:16;4.00;99.90
52965;DHT22;42923;53.220;6.528;2024-03-08T08:09:41;4.10;99.90
52965;DHT22;42923;53.220;6.528;2024-03-08T08:12:11;4.20;99.90
52965;DHT22;42923;53.220;6.528;2024-03-08T08:14:40;4.20;99.90
52965;DHT22;42923;53.220;6.528;2024-03-08T08:17:06;4.50;99.90
52965;DHT22;42923;53.220;6.528;2024-03-08T08:19:34;4.50;99.90
52965;DHT22;42923;53.220;6.528;2024-03-08T08:22:04;4.60;99.90
52965;DHT22;42923;53.220;6.528;2024-03-08T08:24:30;4.90;99.90
52965;DHT22;42923;53.220;6.528;2024-03-08T08:26:56;6.80;99.90
52965;DHT22;42923;53.220;6.528;2024-03-08T08:29:22;5.10;99.90
52965;DHT22;42923;53.220;6.528;2024-03-08T08:31:48;5.20;99.90
52965;DHT22;42923;53.220;6.528;2024-03-08T08:34:18;5.10;99.90
52965;DHT22;42923;53.220;6.528;2024-03-08T08:36:45;5.40;99.90
52965;DHT22;42923;53.220;6.528;2024-03-08T08:39:11;5.30;99.90
52965;DHT22;42923;53.220;6.528;2024-03-08T08:41:40;5.50;99.90
52965;DHT22;42923;53.220;6.528;2024-03-08T08:44:07;5.50;99.90
52965;DHT22;42923;53.220;6.528;2024-03-08T08:46:39;5.50;99.90
52965;DHT22;42923;53.220;6.528;2024-03-08T08:49:05;5.60;99.90
52965;DHT22;42923;53.220;6.528;2024-03-08T08:51:32;5.80;99.90
52965;DHT22;42923;53.220;6.528;2024-03-08T08:53:59;5.90;99.90
52965;DHT22;42923;53.220;6.528;2024-03-08T08:56:25;7.40;99.90
52965;DHT22;42923;53.220;6.528;2024-03-08T08:58:52;6.10;99.90
52965;DHT22;42923;53.220;6.528;2024-03-08T09:01:19;6.20;99.90
52965;DHT22;42923;53.220;6.528;2024-03-08T09:03:45;6.30;99.90
52965;DHT22;42923;53.220;6.528;2024-03-08T09:06:12;6.30;99.90
52965;DHT22;42923;53.220;6.528;2024-03-08T09:08:41;6.30;99.90
52965;DHT22;42923;53.220;6.528;2024-03-08T09:11:07;6.30;99.90
52965;DHT22;42923;53.220;6.528;2024-03-08T09:13:33;6.40;99.90
52965;DHT22;42923;53.220;6.528;2024-03-08T09:15:59;6.40;99.90
52965;DHT22;42923;53.220;6.528;2024-03-08T09:18:25;7.60;99.90
52965;DHT22;42923;53.220;6.528;2024-03-08T09:20:51;6.50;99.90
52965;DHT22;42923;53.220;6.528;2024-03-08T09:23:22;6.50;99.90
52965;DHT22;42923;53.220;6.528;2024-03-08T09:25:47;6.50;99.90
52965;DHT22;42923;53.220;6.528;2024-03-08T09:28:13;6.50;99.90
52965;DHT22;42923;53.220;6.528;2024-03-08T09:30:39;6.40;99.90
52965;DHT22;42923;53.220;6.528;2024-03-08T09:33:05;6.50;99.90
52965;DHT22;42923;53.220;6.528;2024-03-08T09:35:32;6.50;99.90
52965;DHT22;42923;53.220;6.528;2024-03-08T09:37:57;6.60;99.90
52965;DHT22;42923;53.220;6.528;2024-03-08T09:40:23;6.80;99.90
52965;DHT22;42923;53.220;6.528;2024-03-08T09:42:51;6.90;99.90
52965;DHT22;42923;53.220;6.528;2024-03-08T09:45:20;7.90;99.90
52965;DHT22;42923;53.220;6.528;2024-03-08T09:47:48;7.00;99.90
52965;DHT22;42923;53.220;6.528;2024-03-08T09:50:16;7.20;99.90
52965;DHT22;42923;53.220;6.528;2024-03-08T09:52:44;7.30;99.90
52965;DHT22;42923;53.220;6.528;2024-03-08T09:55:11;8.90;99.90
52965;DHT22;42923;53.220;6.528;2024-03-08T09:57:37;7.30;99.90
52965;DHT22;42923;53.220;6.528;2024-03-08T10:00:04;7.50;99.90
52965;DHT22;42923;53.220;6.528;2024-03-08T10:02:50;7.60;99.90
52965;DHT22;42923;53.220;6.528;2024-03-08T10:05:18;8.00;99.90
52965;DHT22;42923;53.220;6.528;2024-03-08T10:07:44;8.20;99.90
52965;DHT22;42923;53.220;6.528;2024-03-08T10:10:09;8.40;99.90
52965;DHT22;42923;53.220;6.528;2024-03-08T10:12:38;9.20;99.90
52965;DHT22;42923;53.220;6.528;2024-03-08T10:15:09;8.50;99.90
52965;DHT22;42923;53.220;6.528;2024-03-08T10:17:35;8.40;99.90
52965;DHT22;42923;53.220;6.528;2024-03-08T10:20:01;9.20;99.90
52965;DHT22;42923;53.220;6.528;2024-03-08T10:22:28;8.70;99.90
52965;DHT22;42923;53.220;6.528;2024-03-08T10:24:55;8.90;99.90
52965;DHT22;42923;53.220;6.528;2024-03-08T10:27:20;9.10;99.90
52965;DHT22;42923;53.220;6.528;2024-03-08T10:29:47;9.40;99.90
52965;DHT22;42923;53.220;6.528;2024-03-08T10:32:13;10.50;99.90
52965;DHT22;42923;53.220;6.528;2024-03-08T10:34:39;9.80;99.90
52965;DHT22;42923;53.220;6.528;2024-03-08T10:37:08;10.00;99.90
52965;DHT22;42923;53.220;6.528;2024-03-08T10:39:37;10.00;99.90
52965;DHT22;42923;53.220;6.528;2024-03-08T10:42:05;10.80;99.90
52965;DHT22;42923;53.220;6.528;2024-03-08T10:44:49;10.40;99.90
52965;DHT22;42923;53.220;6.528;2024-03-08T10:47:26;10.70;99.90
52965;DHT22;42923;53.220;6.528;2024-03-08T10:50:18;11.40;99.90
52965;DHT22;42923;53.220;6.528;2024-03-08T10:52:50;11.20;99.90
52965;DHT22;42923;53.220;6.528;2024-03-08T10:55:17;11.70;99.90
52965;DHT22;42923;53.220;6.528;2024-03-08T10:57:43;11.60;99.90
52965;DHT22;42923;53.220;6.528;2024-03-08T11:00:10;11.50;99.90
52965;DHT22;42923;53.220;6.528;2024-03-08T11:02:37;11.60;99.90
52965;DHT22;42923;53.220;6.528;2024-03-08T11:05:04;11.70;99.90
52965;DHT22;42923;53.220;6.528;2024-03-08T11:07:34;11.90;99.90
52965;DHT22;42923;53.220;6.528;2024-03-08T11:10:04;12.20;99.90
52965;DHT22;42923;53.220;6.528;2024-03-08T11:12:36;12.50;99.90
52965;DHT22;42923;53.220;6.528;2024-03-08T11:15:10;12.50;99.90
52965;DHT22;42923;53.220;6.528;2024-03-08T11:20:17;12.60;99.90
52965;DHT22;42923;53.220;6.528;2024-03-08T11:22:53;12.60;99.90
52965;DHT22;42923;53.220;6.528;2024-03-08T11:25:39;12.70;99.90
52965;DHT22;42923;53.220;6.528;2024-03-08T11:28:18;12.90;99.50
52965;DHT22;42923;53.220;6.528;2024-03-08T11:30:46;13.10;98.70
52965;DHT22;42923;53.220;6.528;2024-03-08T11:33:15;13.00;98.20
52965;DHT22;42923;53.220;6.528;2024-03-08T11:35:42;13.00;98.70
52965;DHT22;42923;53.220;6.528;2024-03-08T11:38:11;13.20;98.00
52965;DHT22;42923;53.220;6.528;2024-03-08T11:40:39;13.20;97.30
52965;DHT22;42923;53.220;6.528;2024-03-08T11:43:05;13.00;97.10
52965;DHT22;42923;53.220;6.528;2024-03-08T11:45:36;13.80;97.10
52965;DHT22;42923;53.220;6.528;2024-03-08T11:48:03;13.00;97.10
52965;DHT22;42923;53.220;6.528;2024-03-08T11:50:29;12.90;97.30
52965;DHT22;42923;53.220;6.528;2024-03-08T11:53:01;13.10;97.20
52965;DHT22;42923;53.220;6.528;2024-03-08T11:55:28;13.30;97.90
52965;DHT22;42923;53.220;6.528;2024-03-08T11:58:04;13.60;96.00
52965;DHT22;42923;53.220;6.528;2024-03-08T12:00:33;13.50;95.30
52965;DHT22;42923;53.220;6.528;2024-03-08T12:03:07;14.20;95.60
52965;DHT22;42923;53.220;6.528;2024-03-08T12:05:35;13.40;95.70
52965;DHT22;42923;53.220;6.528;2024-03-08T12:08:05;14.20;95.50
52965;DHT22;42923;53.220;6.528;2024-03-08T12:10:33;13.70;96.00
52965;DHT22;42923;53.220;6.528;2024-03-08T12:13:00;13.80;94.80
52965;DHT22;42923;53.220;6.528;2024-03-08T12:15:28;14.70;95.20
52965;DHT22;42923;53.220;6.528;2024-03-08T12:17:55;14.10;95.20
52965;DHT22;42923;53.220;6.528;2024-03-08T12:20:25;14.20;94.30
52965;DHT22;42923;53.220;6.528;2024-03-08T12:22:53;14.20;93.40
52965;DHT22;42923;53.220;6.528;2024-03-08T12:25:20;14.50;94.50
52965;DHT22;42923;53.220;6.528;2024-03-08T12:27:46;14.60;94.60
52965;DHT22;42923;53.220;6.528;2024-03-08T12:30:26;14.80;94.20
52965;DHT22;42923;53.220;6.528;2024-03-08T12:32:57;14.70;93.00
52965;DHT22;42923;53.220;6.528;2024-03-08T12:35:25;14.50;92.80
52965;DHT22;42923;53.220;6.528;2024-03-08T12:37:55;14.50;93.90
52965;DHT22;42923;53.220;6.528;2024-03-08T12:40:29;14.70;92.90
52965;DHT22;42923;53.220;6.528;2024-03-08T12:43:02;14.70;92.20
52965;DHT22;42923;53.220;6.528;2024-03-08T12:45:28;14.70;92.80
52965;DHT22;42923;53.220;6.528;2024-03-08T12:47:54;14.70;91.80
52965;DHT22;42923;53.220;6.528;2024-03-08T12:50:23;14.70;92.20
52965;DHT22;42923;53.220;6.528;2024-03-08T12:52:52;14.90;91.90
52965;DHT22;42923;53.220;6.528;2024-03-08T12:55:21;15.00;92.30
52965;DHT22;42923;53.220;6.528;2024-03-08T12:57:47;14.90;92.30
52965;DHT22;42923;53.220;6.528;2024-03-08T13:00:14;15.00;91.20
52965;DHT22;42923;53.220;6.528;2024-03-08T13:02:47;14.90;91.40
52965;DHT22;42923;53.220;6.528;2024-03-08T13:05:12;14.90;90.70
52965;DHT22;42923;53.220;6.528;2024-03-08T13:07:41;14.90;90.80
52965;DHT22;42923;53.220;6.528;2024-03-08T13:10:12;15.60;90.70
52965;DHT22;42923;53.220;6.528;2024-03-08T13:12:43;15.70;91.10
52965;DHT22;42923;53.220;6.528;2024-03-08T13:15:10;15.00;91.00
52965;DHT22;42923;53.220;6.528;2024-03-08T13:17:40;15.10;90.60
52965;DHT22;42923;53.220;6.528;2024-03-08T13:20:08;15.30;90.30
52965;DHT22;42923;53.220;6.528;2024-03-08T13:22:34;15.30;89.50
52965;DHT22;42923;53.220;6.528;2024-03-08T13:24:59;15.40;90.00
52965;DHT22;42923;53.220;6.528;2024-03-08T13:27:27;15.70;87.90
52965;DHT22;42923;53.220;6.528;2024-03-08T13:29:53;15.40;90.00
52965;DHT22;42923;53.220;6.528;2024-03-08T13:32:19;15.60;88.00
52965;DHT22;42923;53.220;6.528;2024-03-08T13:34:49;15.50;87.60
52965;DHT22;42923;53.220;6.528;2024-03-08T13:37:16;15.60;90.00
52965;DHT22;42923;53.220;6.528;2024-03-08T13:39:42;15.80;87.30
52965;DHT22;42923;53.220;6.528;2024-03-08T13:42:14;15.70;87.60
52965;DHT22;42923;53.220;6.528;2024-03-08T13:44:45;15.80;87.70
52965;DHT22;42923;53.220;6.528;2024-03-08T13:47:15;16.30;87.70
52965;DHT22;42923;53.220;6.528;2024-03-08T13:49:41;16.10;87.00
52965;DHT22;42923;53.220;6.528;2024-03-08T13:52:09;16.40;86.00
52965;DHT22;42923;53.220;6.528;2024-03-08T13:54:36;16.10;85.30
52965;DHT22;42923;53.220;6.528;2024-03-08T13:57:02;16.60;85.80
52965;DHT22;42923;53.220;6.528;2024-03-08T13:59:33;16.30;84.70
52965;DHT22;42923;53.220;6.528;2024-03-08T14:02:00;16.30;83.50
52965;DHT22;42923;53.220;6.528;2024-03-08T14:04:28;16.40;82.80
52965;DHT22;42923;53.220;6.528;2024-03-08T14:06:53;16.20;82.10
52965;DHT22;42923;53.220;6.528;2024-03-08T14:09:29;15.90;83.40
52965;DHT22;42923;53.220;6.528;2024-03-08T14:11:55;16.90;84.40
52965;DHT22;42923;53.220;6.528;2024-03-08T14:14:21;15.90;82.60
52965;DHT22;42923;53.220;6.528;2024-03-08T14:16:49;15.70;82.80
52965;DHT22;42923;53.220;6.528;2024-03-08T14:19:19;15.60;83.20
52965;DHT22;42923;53.220;6.528;2024-03-08T14:21:44;15.50;83.10
52965;DHT22;42923;53.220;6.528;2024-03-08T14:24:10;16.10;82.20
52965;DHT22;42923;53.220;6.528;2024-03-08T14:26:36;15.50;82.00
52965;DHT22;42923;53.220;6.528;2024-03-08T14:29:04;15.20;83.10
52965;DHT22;42923;53.220;6.528;2024-03-08T14:31:31;15.60;81.60
52965;DHT22;42923;53.220;6.528;2024-03-08T14:33:57;15.00;83.20
52965;DHT22;42923;53.220;6.528;2024-03-08T14:36:24;15.40;82.50
52965;DHT22;42923;53.220;6.528;2024-03-08T14:38:51;15.00;83.00
52965;DHT22;42923;53.220;6.528;2024-03-08T14:41:18;14.90;82.20
52965;DHT22;42923;53.220;6.528;2024-03-08T14:43:44;14.80;81.90
52965;DHT22;42923;53.220;6.528;2024-03-08T14:46:19;14.60;83.20
52965;DHT22;42923;53.220;6.528;2024-03-08T14:48:52;15.70;83.30
52965;DHT22;42923;53.220;6.528;2024-03-08T14:51:19;14.40;81.10
52965;DHT22;42923;53.220;6.528;2024-03-08T14:53:48;14.60;81.40
52965;DHT22;42923;53.220;6.528;2024-03-08T14:56:15;14.10;81.00
52965;DHT22;42923;53.220;6.528;2024-03-08T14:58:43;13.90;81.80
52965;DHT22;42923;53.220;6.528;2024-03-08T15:01:10;13.70;82.00
52965;DHT22;42923;53.220;6.528;2024-03-08T15:03:39;13.30;83.20
52965;DHT22;42923;53.220;6.528;2024-03-08T15:06:05;13.10;82.80
52965;DHT22;42923;53.220;6.528;2024-03-08T15:08:36;12.60;83.50
52965;DHT22;42923;53.220;6.528;2024-03-08T15:11:02;13.00;84.40
52965;DHT22;42923;53.220;6.528;2024-03-08T15:13:28;11.80;84.70
52965;DHT22;42923;53.220;6.528;2024-03-08T15:15:59;11.50;86.40
52965;DHT22;42923;53.220;6.528;2024-03-08T15:18:26;11.10;85.20
52965;DHT22;42923;53.220;6.528;2024-03-08T15:20:54;10.80;86.00
52965;DHT22;42923;53.220;6.528;2024-03-08T15:23:21;10.60;87.10
52965;DHT22;42923;53.220;6.528;2024-03-08T15:25:47;10.40;87.80
52965;DHT22;42923;53.220;6.528;2024-03-08T15:28:17;10.30;89.40
52965;DHT22;42923;53.220;6.528;2024-03-08T15:30:46;10.20;89.20
52965;DHT22;42923;53.220;6.528;2024-03-08T15:33:17;10.00;89.80
52965;DHT22;42923;53.220;6.528;2024-03-08T15:35:50;9.90;90.00
52965;DHT22;42923;53.220;6.528;2024-03-08T15:38:24;9.70;90.10
52965;DHT22;42923;53.220;6.528;2024-03-08T15:40:50;9.60;90.60
52965;DHT22;42923;53.220;6.528;2024-03-08T15:43:17;9.50;90.80
52965;DHT22;42923;53.220;6.528;2024-03-08T15:45:45;9.40;91.00
52965;DHT22;42923;53.220;6.528;2024-03-08T15:48:12;9.40;90.70
52965;DHT22;42923;53.220;6.528;2024-03-08T15:50:38;9.30;91.30